Time;durP1;ratioP1;P1;durP2;ratioP2;P2;SDS_P1;SDS_P2;PMS_P1;PMS_P2;Temp;Humidity;BMP_temperature;BMP_pressure;BME280_temperature;BME280_humidity;BME280_pressure;Samples;Min_cycle;Max_cycle;Signal;HPM_P1;HPM_P2
2021/12/29 00:01:24;;;;;;;2.50;1.10;;;6.40;99.90;;;;;;4991963;28;20198;-70
2021/12/29 00:03:50;;;;;;;2.27;0.87;;;6.40;99.90;;;;;;4992528;28;20616;-70
2021/12/29 00:06:16;;;;;;;2.90;1.03;;;6.40;99.90;;;;;;4994590;28;20480;-70
2021/12/29 00:08:42;;;;;;;1.90;0.97;;;6.40;99.90;;;;;;4985771;28;20827;-70
2021/12/29 00:11:07;;;;;;;3.00;1.10;;;6.40;99.90;;;;;;4997007;28;20464;-70
2021/12/29 00:13:33;;;;;;;1.50;0.60;;;6.40;99.90;;;;;;4994567;28;20200;-69
2021/12/29 00:16:00;;;;;;;2.37;1.00;;;6.40;99.90;;;;;;4997734;28;20636;-69
2021/12/29 00:18:28;;;;;;;15.77;1.00;;;6.40;99.90;;;;;;4995429;28;20443;-70
2021/12/29 00:20:55;;;;;;;8.40;1.87;;;6.40;99.90;;;;;;4998454;28;20983;-70
2021/12/29 00:23:21;;;;;;;7.80;1.20;;;6.40;99.90;;;;;;4991912;28;20453;-70
2021/12/29 00:25:47;;;;;;;4.43;1.00;;;6.40;99.90;;;;;;5003867;28;20466;-70
2021/12/29 00:28:14;;;;;;;8.27;1.27;;;6.40;99.90;;;;;;4997327;28;20243;-69
2021/12/29 00:30:40;;;;;;;1.67;0.83;;;6.40;99.90;;;;;;5000137;28;20598;-70
2021/12/29 00:33:06;;;;;;;5.47;1.17;;;6.40;99.90;;;;;;4991831;28;20431;-70
2021/12/29 00:35:34;;;;;;;2.33;0.87;;;6.30;99.90;;;;;;4989395;28;20430;-70
2021/12/29 00:38:02;;;;;;;1.80;0.83;;;6.40;99.90;;;;;;4989797;28;20195;-70
2021/12/29 00:40:29;;;;;;;4.17;0.80;;;6.40;99.90;;;;;;4999749;28;20518;-70
2021/12/29 00:42:55;;;;;;;1.73;0.80;;;6.40;99.90;;;;;;4991883;28;20505;-70
2021/12/29 00:45:21;;;;;;;3.40;0.80;;;6.40;99.90;;;;;;4994526;28;20951;-70
2021/12/29 00:47:48;;;;;;;4.03;1.03;;;6.40;99.90;;;;;;4992374;28;20238;-70
2021/12/29 00:50:15;;;;;;;2.90;1.27;;;6.30;99.90;;;;;;4992800;28;20184;-70
2021/12/29 00:52:44;;;;;;;2.07;0.80;;;6.40;99.90;;;;;;4993194;28;20994;-70
2021/12/29 00:55:10;;;;;;;3.63;1.00;;;6.40;99.90;;;;;;4989478;28;20423;-69
2021/12/29 00:57:36;;;;;;;6.60;1.43;;;6.30;99.90;;;;;;4993351;28;20593;-70
2021/12/29 01:00:08;;;;;;;20.13;1.50;;;6.30;99.90;;;;;;4997729;28;20538;-69
2021/12/29 01:02:34;;;;;;;1.50;0.73;;;6.40;99.90;;;;;;4996528;28;20207;-70
2021/12/29 01:05:00;;;;;;;3.40;1.17;;;6.30;99.90;;;;;;4991286;28;20508;-70
2021/12/29 01:07:27;;;;;;;5.33;1.00;;;6.40;99.90;;;;;;4990350;28;20595;-70
2021/12/29 01:09:53;;;;;;;4.30;1.13;;;6.50;99.90;;;;;;4991115;28;20485;-70
2021/12/29 01:12:19;;;;;;;2.60;0.70;;;6.50;99.90;;;;;;4997340;28;20198;-70
2021/12/29 01:14:52;;;;;;;1.73;0.53;;;6.50;99.90;;;;;;4993969;28;20187;-70
2021/12/29 01:17:18;;;;;;;1.93;1.00;;;6.50;99.90;;;;;;4989437;28;20200;-70
2021/12/29 01:19:44;;;;;;;3.87;1.20;;;6.50;99.90;;;;;;4994663;28;20442;-69
2021/12/29 01:22:10;;;;;;;3.70;0.80;;;6.50;99.90;;;;;;4984788;28;20455;-70
2021/12/29 01:24:37;;;;;;;1.10;0.50;;;6.50;99.90;;;;;;4995194;28;20277;-70
2021/12/29 01:27:02;;;;;;;10.40;1.03;;;6.60;99.90;;;;;;4991580;28;20481;-69
2021/12/29 01:29:30;;;;;;;1.47;0.60;;;6.60;99.90;;;;;;4991476;28;20430;-70
2021/12/29 01:31:59;;;;;;;1.10;0.50;;;6.60;99.90;;;;;;4994213;28;20233;-70
2021/12/29 01:34:25;;;;;;;7.30;0.70;;;6.70;99.90;;;;;;4990724;28;20435;-69
2021/12/29 01:36:51;;;;;;;1.87;0.67;;;6.60;99.90;;;;;;4995326;28;20422;-70
2021/12/29 01:39:19;;;;;;;1.67;0.83;;;6.60;99.90;;;;;;4990781;28;21073;-70
2021/12/29 01:41:47;;;;;;;1.43;0.53;;;6.60;99.90;;;;;;4996739;28;20544;-70
2021/12/29 01:44:15;;;;;;;2.27;0.57;;;6.60;99.90;;;;;;4983498;28;20443;-70
2021/12/29 01:46:43;;;;;;;2.83;0.80;;;6.60;99.90;;;;;;4997306;28;20528;-69
2021/12/29 01:49:08;;;;;;;3.77;1.60;;;6.60;99.90;;;;;;4987666;28;20453;-70
2021/12/29 01:51:35;;;;;;;3.00;0.80;;;6.60;99.90;;;;;;4998881;28;20453;-69
2021/12/29 01:54:46;;;;;;;2.57;0.60;;;6.60;99.90;;;;;;4993730;28;20234;-69
2021/12/29 01:56:47;;;;;;;5.77;0.60;;;6.70;99.90;;;;;;4991888;28;20428;-69
2021/12/29 01:59:14;;;;;;;7.73;0.80;;;6.60;99.90;;;;;;4992603;28;20441;-70
2021/12/29 02:01:40;;;;;;;5.57;0.70;;;6.60;99.90;;;;;;4993666;28;20243;-70
2021/12/29 02:04:06;;;;;;;3.63;0.90;;;6.60;99.90;;;;;;4994386;28;20948;-69
2021/12/29 02:06:31;;;;;;;1.20;0.50;;;6.60;99.90;;;;;;4994618;28;20732;-70
2021/12/29 02:08:58;;;;;;;5.43;0.73;;;6.60;99.90;;;;;;4989000;28;20534;-70
2021/12/29 02:11:29;;;;;;;1.93;0.80;;;6.60;99.90;;;;;;4988971;28;20186;-70
2021/12/29 02:14:00;;;;;;;2.80;0.87;;;6.60;99.90;;;;;;4982698;28;20554;-70
2021/12/29 02:16:27;;;;;;;1.30;0.60;;;6.60;99.90;;;;;;4988779;28;20561;-70
2021/12/29 02:18:55;;;;;;;1.93;0.70;;;6.60;99.90;;;;;;4983916;28;20435;-70
2021/12/29 02:21:27;;;;;;;1.10;0.50;;;6.60;99.90;;;;;;4989821;28;20447;-69
2021/12/29 02:26:38;;;;;;;1.67;0.90;;;6.60;99.90;;;;;;4991971;28;21013;-69
2021/12/29 02:29:06;;;;;;;1.47;0.50;;;6.60;99.90;;;;;;4989143;28;21083;-70
2021/12/29 02:31:31;;;;;;;1.83;0.50;;;6.60;99.90;;;;;;4988487;28;20526;-70
2021/12/29 02:33:58;;;;;;;7.90;0.80;;;6.50;99.90;;;;;;4987722;28;20446;-70
2021/12/29 02:36:25;;;;;;;1.97;0.97;;;6.60;99.90;;;;;;4995817;28;20187;-70
2021/12/29 02:38:54;;;;;;;3.47;0.80;;;6.60;99.90;;;;;;4995920;28;20430;-70
2021/12/29 02:41:22;;;;;;;1.50;0.50;;;6.50;99.90;;;;;;4996529;28;20783;-70
2021/12/29 02:43:49;;;;;;;1.80;0.70;;;6.50;99.90;;;;;;4994038;28;20438;-70
2021/12/29 02:46:16;;;;;;;2.00;0.80;;;6.50;99.90;;;;;;4997011;28;20969;-70
2021/12/29 02:48:51;;;;;;;1.20;0.60;;;6.50;99.90;;;;;;4996357;28;20434;-70
2021/12/29 02:51:17;;;;;;;1.77;0.70;;;6.50;99.90;;;;;;4998500;28;20496;-70
2021/12/29 02:53:43;;;;;;;9.03;0.80;;;6.50;99.90;;;;;;4994017;28;21355;-70
2021/12/29 02:56:09;;;;;;;2.87;0.87;;;6.40;99.90;;;;;;4991416;28;20187;-70
2021/12/29 02:58:35;;;;;;;10.53;0.70;;;6.50;99.90;;;;;;4992337;28;20215;-70
2021/12/29 03:01:11;;;;;;;1.80;0.70;;;6.50;99.90;;;;;;4986339;28;20461;-69
2021/12/29 03:03:37;;;;;;;2.30;0.80;;;6.50;99.90;;;;;;4993627;28;20234;-70
2021/12/29 03:06:05;;;;;;;1.93;1.00;;;6.50;99.90;;;;;;4989485;28;20560;-70
2021/12/29 03:08:30;;;;;;;3.10;0.73;;;6.60;99.90;;;;;;4992479;28;20476;-70
2021/12/29 03:10:56;;;;;;;2.37;0.67;;;6.60;99.90;;;;;;4980932;28;21016;-70
2021/12/29 03:13:27;;;;;;;2.03;0.70;;;6.60;99.90;;;;;;4991976;28;20179;-70
2021/12/29 03:15:54;;;;;;;2.73;0.90;;;6.70;99.90;;;;;;4988171;28;20336;-70
2021/12/29 03:18:20;;;;;;;1.87;0.60;;;6.70;99.90;;;;;;4990625;28;20441;-70
2021/12/29 03:20:46;;;;;;;3.97;0.87;;;6.70;99.90;;;;;;4992016;28;20447;-70
2021/12/29 03:23:12;;;;;;;3.10;0.80;;;6.70;99.90;;;;;;4996245;28;20196;-70
2021/12/29 03:25:38;;;;;;;1.20;0.50;;;6.70;99.90;;;;;;4996109;28;20466;-70
2021/12/29 03:28:05;;;;;;;6.50;1.03;;;6.80;99.90;;;;;;4999104;28;20784;-70
2021/12/29 03:30:35;;;;;;;1.20;0.50;;;6.70;99.90;;;;;;4995186;28;20461;-70
2021/12/29 03:33:05;;;;;;;7.50;0.60;;;6.70;99.90;;;;;;4999536;28;20450;-70
2021/12/29 03:35:33;;;;;;;1.93;0.80;;;6.70;99.90;;;;;;4993105;28;20872;-70
2021/12/29 03:38:00;;;;;;;2.90;1.20;;;6.80;99.90;;;;;;4991086;28;20422;-69
2021/12/29 03:40:27;;;;;;;1.67;0.50;;;6.70;99.90;;;;;;5000651;28;20422;-70
2021/12/29 03:42:53;;;;;;;5.73;0.60;;;6.90;99.90;;;;;;5004754;28;20418;-70
2021/12/29 03:45:19;;;;;;;1.73;0.70;;;6.80;99.90;;;;;;4996084;28;20467;-69
2021/12/29 03:47:44;;;;;;;2.33;1.07;;;6.80;99.90;;;;;;5002639;28;20509;-70
2021/12/29 03:50:10;;;;;;;1.17;0.60;;;6.80;99.90;;;;;;5001020;28;20195;-70
2021/12/29 03:52:36;;;;;;;1.33;0.70;;;6.80;99.90;;;;;;4998436;28;20188;-69
2021/12/29 03:55:02;;;;;;;1.93;0.80;;;6.90;99.90;;;;;;4992472;28;20419;-69
2021/12/29 03:57:28;;;;;;;1.97;0.70;;;6.90;99.90;;;;;;4994695;28;20214;-70
2021/12/29 03:59:53;;;;;;;1.37;0.50;;;6.80;99.90;;;;;;4993225;28;20458;-69
2021/12/29 04:02:19;;;;;;;1.87;0.60;;;6.90;99.90;;;;;;4993554;28;20191;-69
2021/12/29 04:04:45;;;;;;;7.70;0.93;;;6.90;99.90;;;;;;4990934;28;20193;-69
2021/12/29 04:07:10;;;;;;;1.90;0.80;;;6.90;99.90;;;;;;4989973;28;20207;-69
2021/12/29 04:09:38;;;;;;;1.90;0.90;;;6.90;99.90;;;;;;4987582;28;20188;-69
2021/12/29 04:12:04;;;;;;;1.93;0.90;;;6.90;99.90;;;;;;4991946;28;20180;-69
2021/12/29 04:14:29;;;;;;;1.93;0.70;;;6.80;99.90;;;;;;4997420;28;20453;-69
2021/12/29 04:16:57;;;;;;;4.63;0.77;;;6.80;99.90;;;;;;4991732;28;20928;-69
2021/12/29 04:19:32;;;;;;;4.00;0.67;;;6.90;99.90;;;;;;4985823;28;20259;-69
2021/12/29 04:21:58;;;;;;;2.17;0.90;;;6.80;99.90;;;;;;4993112;28;20508;-69
2021/12/29 04:24:25;;;;;;;1.80;0.70;;;6.80;99.90;;;;;;4984559;28;20519;-69
2021/12/29 04:26:51;;;;;;;1.90;0.80;;;6.80;99.90;;;;;;4995747;28;21306;-69
2021/12/29 04:29:16;;;;;;;1.93;0.67;;;6.90;99.90;;;;;;4993740;28;20549;-69
2021/12/29 04:31:43;;;;;;;1.50;0.67;;;6.80;99.90;;;;;;5001491;28;20256;-69
2021/12/29 04:34:09;;;;;;;2.60;0.80;;;6.90;99.90;;;;;;5000304;28;20688;-69
2021/12/29 04:36:35;;;;;;;1.63;0.77;;;6.90;99.90;;;;;;4997300;28;20457;-69
2021/12/29 04:39:03;;;;;;;4.30;0.67;;;6.90;99.90;;;;;;4998553;28;21276;-69
2021/12/29 04:41:29;;;;;;;3.57;0.90;;;6.90;99.90;;;;;;4998413;28;20434;-69
2021/12/29 04:43:54;;;;;;;1.20;0.60;;;6.90;99.90;;;;;;5002323;28;20430;-69
2021/12/29 04:46:27;;;;;;;2.80;1.00;;;6.90;99.90;;;;;;4995763;28;20462;-69
2021/12/29 04:48:59;;;;;;;2.70;1.07;;;6.90;99.90;;;;;;4993724;28;20191;-69
2021/12/29 04:51:33;;;;;;;1.10;0.40;;;6.90;99.90;;;;;;4989646;28;20430;-69
2021/12/29 04:54:00;;;;;;;2.23;0.87;;;6.90;99.90;;;;;;4989698;28;20771;-69
2021/12/29 04:56:25;;;;;;;1.50;0.90;;;6.90;99.90;;;;;;4987054;28;20470;-69
2021/12/29 04:58:51;;;;;;;1.83;0.50;;;6.90;99.90;;;;;;4980848;28;20466;-69
2021/12/29 05:01:17;;;;;;;2.07;0.87;;;6.90;99.90;;;;;;4990846;28;20298;-69
2021/12/29 05:03:44;;;;;;;3.83;1.17;;;7.00;99.90;;;;;;4988816;28;20195;-69
2021/12/29 05:08:36;;;;;;;1.90;0.70;;;7.00;99.90;;;;;;4989594;28;20431;-69
2021/12/29 05:11:11;;;;;;;4.70;1.37;;;7.00;99.90;;;;;;4988336;28;20438;-69
2021/12/29 05:13:40;;;;;;;1.10;0.40;;;7.00;99.90;;;;;;4994178;28;20191;-69
2021/12/29 05:16:06;;;;;;;2.60;0.70;;;7.00;99.90;;;;;;4995475;28;21241;-69
2021/12/29 05:18:36;;;;;;;1.70;0.60;;;7.00;99.90;;;;;;4992839;28;21031;-68
2021/12/29 05:21:04;;;;;;;1.43;0.60;;;6.90;99.90;;;;;;4986968;28;20453;-69
2021/12/29 05:23:30;;;;;;;1.40;0.50;;;6.90;99.90;;;;;;4994690;28;20493;-69
2021/12/29 05:25:56;;;;;;;1.90;1.03;;;6.80;99.90;;;;;;4989364;28;20476;-71
2021/12/29 05:28:24;;;;;;;3.40;1.03;;;6.80;99.90;;;;;;4992778;28;20423;-68
2021/12/29 05:30:51;;;;;;;3.30;0.80;;;6.80;99.90;;;;;;4998593;28;20183;-68
2021/12/29 05:33:17;;;;;;;1.30;0.50;;;6.80;99.90;;;;;;4993930;28;20418;-69
2021/12/29 05:35:43;;;;;;;1.20;0.57;;;6.70;99.90;;;;;;4993970;28;20445;-68
2021/12/29 05:38:09;;;;;;;1.97;0.63;;;6.70;99.90;;;;;;4995033;28;20486;-68
2021/12/29 05:40:35;;;;;;;13.47;0.60;;;6.70;99.90;;;;;;4995579;28;20439;-68
2021/12/29 05:43:01;;;;;;;1.10;0.40;;;6.70;99.90;;;;;;5000878;28;20544;-68
2021/12/29 05:45:28;;;;;;;1.67;0.67;;;6.70;99.90;;;;;;4994319;28;20503;-68
2021/12/29 05:47:55;;;;;;;3.93;0.53;;;6.60;99.90;;;;;;4981906;28;20194;-68
2021/12/29 05:50:23;;;;;;;1.70;0.63;;;6.60;99.90;;;;;;4988930;28;20423;-68
2021/12/29 05:52:49;;;;;;;1.70;0.70;;;6.60;99.90;;;;;;4988733;28;20449;-69
2021/12/29 05:55:15;;;;;;;1.20;0.50;;;6.60;99.90;;;;;;4982782;28;20443;-68
2021/12/29 05:57:41;;;;;;;1.23;0.60;;;6.60;99.90;;;;;;4990451;28;20286;-68
2021/12/29 06:00:10;;;;;;;2.93;1.07;;;6.60;99.90;;;;;;4990182;28;20229;-69
2021/12/29 06:02:35;;;;;;;5.27;0.70;;;6.60;99.90;;;;;;4990641;28;20183;-68
2021/12/29 06:05:01;;;;;;;14.03;1.60;;;6.50;99.90;;;;;;4990475;28;20771;-69
2021/12/29 06:07:27;;;;;;;1.37;0.60;;;6.50;99.90;;;;;;4992071;28;20207;-69
2021/12/29 06:09:53;;;;;;;1.23;0.57;;;6.50;99.90;;;;;;4991521;28;20277;-68
2021/12/29 06:12:18;;;;;;;7.07;0.63;;;6.60;99.90;;;;;;4994767;28;20195;-69
2021/12/29 06:14:44;;;;;;;2.13;0.87;;;6.50;99.90;;;;;;4993301;28;20187;-69
2021/12/29 06:17:11;;;;;;;1.43;0.73;;;6.50;99.90;;;;;;4992584;28;20184;-68
2021/12/29 06:19:37;;;;;;;2.07;0.70;;;6.60;99.90;;;;;;4993245;28;20465;-69
2021/12/29 06:22:08;;;;;;;1.93;0.63;;;6.50;99.90;;;;;;4995873;28;20450;-68
2021/12/29 06:24:34;;;;;;;1.10;0.50;;;6.50;99.90;;;;;;4997010;28;20191;-69
2021/12/29 06:27:00;;;;;;;1.60;0.60;;;6.50;99.90;;;;;;4999839;28;20493;-69
2021/12/29 06:29:25;;;;;;;1.30;0.50;;;6.50;99.90;;;;;;4998621;28;20214;-68
2021/12/29 06:31:51;;;;;;;4.60;0.83;;;6.50;99.90;;;;;;5001002;28;20182;-68
2021/12/29 06:34:17;;;;;;;1.50;0.40;;;6.50;99.90;;;;;;4992922;28;20215;-68
2021/12/29 06:36:43;;;;;;;3.90;1.00;;;6.50;99.90;;;;;;5002259;28;20521;-69
2021/12/29 06:39:10;;;;;;;1.40;0.70;;;6.50;99.90;;;;;;4999604;28;20437;-69
2021/12/29 06:41:35;;;;;;;2.60;0.87;;;6.60;99.90;;;;;;4999578;28;20226;-71
2021/12/29 06:44:02;;;;;;;1.30;0.60;;;6.60;99.90;;;;;;4991305;28;20431;-71
2021/12/29 06:46:27;;;;;;;3.10;0.90;;;6.50;99.90;;;;;;4991653;28;20680;-71
2021/12/29 06:48:53;;;;;;;2.87;1.20;;;6.60;99.90;;;;;;4992626;28;20546;-70
2021/12/29 06:51:19;;;;;;;1.97;0.60;;;6.60;99.90;;;;;;4993550;28;20230;-71
2021/12/29 06:53:44;;;;;;;2.73;0.77;;;6.60;99.90;;;;;;4993644;28;20696;-70
2021/12/29 06:56:10;;;;;;;3.67;1.13;;;6.50;99.90;;;;;;4992609;28;20656;-70
2021/12/29 06:58:36;;;;;;;6.03;0.70;;;6.60;99.90;;;;;;5003468;28;20196;-70
2021/12/29 07:01:03;;;;;;;2.03;0.80;;;6.60;99.90;;;;;;5002435;28;20918;-70
2021/12/29 07:03:29;;;;;;;1.20;0.50;;;6.60;99.90;;;;;;5003526;28;20184;-70
2021/12/29 07:05:54;;;;;;;2.23;1.13;;;6.60;99.90;;;;;;4997312;28;20977;-70
2021/12/29 07:08:23;;;;;;;4.20;1.20;;;6.60;99.90;;;;;;4991251;28;20184;-70
2021/12/29 07:10:49;;;;;;;2.80;1.23;;;6.50;99.90;;;;;;4992086;28;20819;-70
2021/12/29 07:13:14;;;;;;;4.70;1.13;;;6.60;99.90;;;;;;4992018;28;20426;-71
2021/12/29 07:15:40;;;;;;;1.50;0.73;;;6.60;99.90;;;;;;4992816;28;20228;-71
2021/12/29 07:18:06;;;;;;;1.60;0.50;;;6.60;99.90;;;;;;4986517;28;20188;-73
2021/12/29 07:20:32;;;;;;;5.53;1.33;;;6.60;99.90;;;;;;4993676;28;20207;-73
2021/12/29 07:22:57;;;;;;;3.93;0.90;;;6.50;99.90;;;;;;4995008;28;20672;-72
2021/12/29 07:25:24;;;;;;;1.30;0.60;;;6.60;99.90;;;;;;4996921;28;20241;-72
2021/12/29 07:27:51;;;;;;;7.17;1.00;;;6.60;99.90;;;;;;4998918;28;20318;-72
2021/12/29 07:30:17;;;;;;;3.80;1.20;;;6.60;99.90;;;;;;4988298;28;20957;-70
2021/12/29 07:32:43;;;;;;;3.10;1.00;;;6.60;99.90;;;;;;4991896;28;20426;-71
2021/12/29 07:35:09;;;;;;;1.70;1.03;;;6.60;99.90;;;;;;5001573;28;20445;-70
2021/12/29 07:37:35;;;;;;;5.20;1.17;;;6.60;99.90;;;;;;4997678;28;20195;-70
2021/12/29 07:40:06;;;;;;;2.63;0.93;;;6.70;99.90;;;;;;4991381;28;25062;-70
2021/12/29 07:42:32;;;;;;;5.40;0.80;;;6.60;99.90;;;;;;4987497;28;20191;-70
2021/12/29 07:44:58;;;;;;;4.90;1.07;;;6.60;99.90;;;;;;4999915;28;20481;-70
2021/12/29 07:47:24;;;;;;;1.83;0.70;;;6.60;99.90;;;;;;4991283;28;20478;-72
2021/12/29 07:49:49;;;;;;;2.80;0.70;;;6.60;99.90;;;;;;4999902;28;20223;-70
2021/12/29 07:52:15;;;;;;;3.60;0.60;;;6.70;99.90;;;;;;4997103;28;20187;-70
2021/12/29 07:54:41;;;;;;;1.70;0.70;;;6.70;99.90;;;;;;5000293;28;20914;-70
2021/12/29 07:57:06;;;;;;;1.53;0.60;;;6.70;99.90;;;;;;4995076;28;20217;-70
2021/12/29 07:59:32;;;;;;;2.07;1.20;;;6.70;99.90;;;;;;4990831;28;20570;-70
2021/12/29 08:01:58;;;;;;;10.40;0.80;;;6.70;99.90;;;;;;4997143;28;20561;-70
2021/12/29 08:04:24;;;;;;;2.13;1.10;;;6.70;99.90;;;;;;4997011;28;20859;-70
2021/12/29 08:06:52;;;;;;;5.90;1.07;;;6.70;99.90;;;;;;4988620;28;20467;-70
2021/12/29 08:09:17;;;;;;;3.87;0.97;;;6.70;99.90;;;;;;4985432;28;20303;-70
2021/12/29 08:11:43;;;;;;;1.50;0.73;;;6.70;99.90;;;;;;4996334;28;20878;-70
2021/12/29 08:14:09;;;;;;;4.60;1.63;;;6.80;99.90;;;;;;4990041;28;20214;-71
2021/12/29 08:16:35;;;;;;;2.27;0.80;;;6.80;99.90;;;;;;4988542;28;20255;-70
2021/12/29 08:19:01;;;;;;;2.50;1.00;;;6.80;99.90;;;;;;4992461;28;20534;-70
2021/12/29 08:21:26;;;;;;;1.47;0.80;;;6.80;99.90;;;;;;4990192;28;20215;-71
2021/12/29 08:23:52;;;;;;;2.47;1.07;;;6.80;99.90;;;;;;4995303;28;20245;-70
2021/12/29 08:26:19;;;;;;;3.30;1.27;;;6.90;99.90;;;;;;4990988;28;20215;-70
2021/12/29 08:28:45;;;;;;;2.67;1.10;;;6.90;99.90;;;;;;4991531;28;20233;-71
2021/12/29 08:31:10;;;;;;;2.63;1.00;;;6.90;99.90;;;;;;4990243;28;20438;-70
2021/12/29 08:33:38;;;;;;;4.90;1.50;;;6.90;99.90;;;;;;4983343;28;20207;-70
2021/12/29 08:36:06;;;;;;;2.50;1.33;;;6.90;99.90;;;;;;4991427;28;20187;-70
2021/12/29 08:38:31;;;;;;;2.60;1.23;;;7.00;99.90;;;;;;4990732;28;20479;-71
2021/12/29 08:40:57;;;;;;;4.03;1.40;;;7.00;99.90;;;;;;4991893;28;20500;-70
2021/12/29 08:43:23;;;;;;;2.20;0.80;;;7.00;99.90;;;;;;4990365;28;20195;-72
2021/12/29 08:45:48;;;;;;;4.07;1.50;;;7.10;99.90;;;;;;4984449;28;20218;-70
2021/12/29 08:48:15;;;;;;;3.97;1.20;;;7.00;99.90;;;;;;4991004;28;22015;-70
2021/12/29 08:50:41;;;;;;;4.03;0.87;;;7.10;99.90;;;;;;4984237;28;20192;-71
2021/12/29 08:53:08;;;;;;;3.67;1.53;;;7.10;99.90;;;;;;4993375;28;20418;-71
2021/12/29 08:55:37;;;;;;;4.03;1.00;;;7.10;99.90;;;;;;4981964;28;20439;-71
2021/12/29 08:58:06;;;;;;;3.10;1.10;;;7.10;99.90;;;;;;4985381;28;20537;-70
2021/12/29 09:00:33;;;;;;;1.50;0.70;;;7.20;99.90;;;;;;4986978;28;20439;-70
2021/12/29 09:02:59;;;;;;;3.20;0.93;;;7.20;99.90;;;;;;4985252;28;21304;-70
2021/12/29 09:05:24;;;;;;;1.40;0.90;;;7.30;99.90;;;;;;4989737;28;20584;-70
2021/12/29 09:07:50;;;;;;;2.43;0.70;;;7.30;99.90;;;;;;4991577;28;20266;-70
2021/12/29 09:10:18;;;;;;;1.90;0.90;;;7.20;99.90;;;;;;4986599;28;20206;-70
2021/12/29 09:12:47;;;;;;;2.47;1.00;;;7.30;99.90;;;;;;4998801;28;20443;-73
2021/12/29 09:15:14;;;;;;;1.90;0.60;;;7.20;99.90;;;;;;4991954;28;20427;-70
2021/12/29 09:17:39;;;;;;;3.63;1.23;;;7.20;99.90;;;;;;4992277;28;20825;-70
2021/12/29 09:20:13;;;;;;;1.67;0.60;;;7.20;99.90;;;;;;4994595;28;20450;-70
2021/12/29 09:22:39;;;;;;;2.30;0.77;;;7.30;99.90;;;;;;4988572;28;20192;-70
2021/12/29 09:25:05;;;;;;;3.43;0.70;;;7.20;99.90;;;;;;4987067;28;20482;-67
2021/12/29 09:27:31;;;;;;;7.70;0.93;;;7.30;99.90;;;;;;4987435;28;21113;-68
2021/12/29 09:29:56;;;;;;;2.63;0.70;;;7.30;99.90;;;;;;4987191;28;20450;-68
2021/12/29 09:32:23;;;;;;;1.90;0.67;;;7.40;99.90;;;;;;4987487;28;20192;-67
2021/12/29 09:34:50;;;;;;;5.37;1.03;;;7.50;99.90;;;;;;4982881;28;20188;-67
2021/12/29 09:37:16;;;;;;;12.63;1.07;;;7.60;99.90;;;;;;4987196;28;21093;-68
2021/12/29 09:39:42;;;;;;;2.80;0.70;;;7.60;99.90;;;;;;4989272;28;20439;-68
2021/12/29 09:42:07;;;;;;;1.53;0.80;;;7.60;99.90;;;;;;4989930;28;20206;-68
2021/12/29 09:44:33;;;;;;;1.40;0.60;;;7.60;99.90;;;;;;4988800;28;21365;-68
2021/12/29 09:46:59;;;;;;;5.63;0.87;;;7.60;99.90;;;;;;4984448;28;20231;-68
2021/12/29 09:49:25;;;;;;;3.20;1.03;;;7.60;99.90;;;;;;4986334;28;20211;-68
2021/12/29 09:51:51;;;;;;;2.73;0.70;;;7.60;99.90;;;;;;4986316;28;20202;-68
2021/12/29 09:54:17;;;;;;;4.53;1.00;;;7.70;99.90;;;;;;4984699;28;20737;-69
2021/12/29 09:56:43;;;;;;;2.67;0.60;;;7.70;99.90;;;;;;4979871;28;20780;-69
2021/12/29 09:59:09;;;;;;;11.50;1.03;;;7.70;99.90;;;;;;4983098;28;20447;-69
2021/12/29 10:01:34;;;;;;;3.63;1.40;;;7.70;99.90;;;;;;4986302;28;20248;-69
2021/12/29 10:04:00;;;;;;;9.57;1.10;;;7.80;99.90;;;;;;4990663;28;20211;-69
2021/12/29 10:06:26;;;;;;;4.23;1.63;;;7.80;99.90;;;;;;4978776;28;20239;-69
2021/12/29 10:08:53;;;;;;;6.10;0.70;;;7.80;99.90;;;;;;4987739;28;20238;-69
2021/12/29 10:11:31;;;;;;;5.77;1.07;;;7.90;99.90;;;;;;4988331;28;20183;-69
2021/12/29 10:13:58;;;;;;;1.40;0.60;;;7.90;99.90;;;;;;4986968;28;20762;-69
2021/12/29 10:16:28;;;;;;;8.80;0.90;;;7.90;99.90;;;;;;4986891;28;20557;-68
2021/12/29 10:19:10;;;;;;;2.77;1.43;;;8.00;99.90;;;;;;4989153;28;20602;-68
2021/12/29 10:21:40;;;;;;;1.60;0.80;;;8.00;99.90;;;;;;4986965;28;20518;-69
2021/12/29 10:24:06;;;;;;;1.90;0.83;;;8.00;99.90;;;;;;4985533;28;20435;-68
2021/12/29 10:26:36;;;;;;;4.10;0.70;;;8.00;99.90;;;;;;4993153;28;20470;-68
2021/12/29 10:29:07;;;;;;;5.03;0.83;;;8.00;99.90;;;;;;4990004;28;20779;-68
2021/12/29 10:31:39;;;;;;;2.33;1.07;;;8.00;99.90;;;;;;4986057;28;20496;-69
2021/12/29 10:34:09;;;;;;;1.70;0.73;;;8.00;99.90;;;;;;4991814;28;20435;-68
2021/12/29 10:36:48;;;;;;;4.17;1.13;;;8.10;99.90;;;;;;4992099;28;20501;-68
2021/12/29 10:39:15;;;;;;;4.83;1.43;;;8.20;99.90;;;;;;4995991;28;20838;-69
2021/12/29 10:41:58;;;;;;;3.50;1.20;;;8.20;99.90;;;;;;4990621;28;20469;-69
2021/12/29 10:44:46;;;;;;;2.80;1.13;;;8.20;99.90;;;;;;4981888;28;20444;-74
2021/12/29 10:47:16;;;;;;;1.70;0.80;;;8.10;99.90;;;;;;4984707;28;20470;-70
2021/12/29 10:50:07;;;;;;;1.50;0.60;;;8.10;99.90;;;;;;4989074;28;20554;-68
2021/12/29 10:52:41;;;;;;;2.07;0.80;;;8.10;99.90;;;;;;4991600;28;20496;-69
2021/12/29 10:55:22;;;;;;;2.23;0.70;;;8.10;99.90;;;;;;4994182;28;21317;-68
2021/12/29 10:58:00;;;;;;;4.23;1.10;;;8.00;99.90;;;;;;4991535;28;20437;-69
2021/12/29 11:00:25;;;;;;;2.50;0.70;;;8.00;99.90;;;;;;4989883;28;20435;-68
2021/12/29 11:02:52;;;;;;;6.90;1.00;;;8.00;99.90;;;;;;4984410;28;20470;-69
2021/12/29 11:05:18;;;;;;;1.50;0.77;;;8.00;99.90;;;;;;4989545;28;20293;-68
2021/12/29 11:07:44;;;;;;;1.20;0.60;;;8.10;99.90;;;;;;4987573;28;20950;-68
2021/12/29 11:10:17;;;;;;;1.80;1.00;;;8.10;99.90;;;;;;4987655;28;20423;-68
2021/12/29 11:12:53;;;;;;;3.10;1.47;;;8.10;99.90;;;;;;4980272;28;20191;-69
2021/12/29 11:15:22;;;;;;;8.93;1.60;;;8.10;99.90;;;;;;4990047;28;20915;-68
2021/12/29 11:17:48;;;;;;;6.37;1.60;;;8.10;99.90;;;;;;4989436;28;20419;-68
2021/12/29 11:20:23;;;;;;;3.80;1.10;;;8.00;99.90;;;;;;4989536;28;21795;-68
2021/12/29 11:22:50;;;;;;;5.43;1.20;;;8.00;99.90;;;;;;4986521;28;20190;-68
2021/12/29 11:25:30;;;;;;;1.40;0.90;;;8.10;99.90;;;;;;4990001;28;21167;-68
2021/12/29 11:27:56;;;;;;;10.20;0.60;;;8.00;99.90;;;;;;4990502;28;21145;-68
2021/12/29 11:30:22;;;;;;;1.60;0.90;;;8.00;99.90;;;;;;4988538;28;20473;-68
2021/12/29 11:32:49;;;;;;;5.20;1.50;;;8.00;99.90;;;;;;4986795;28;20435;-68
2021/12/29 11:35:20;;;;;;;2.03;0.80;;;8.00;99.90;;;;;;4990843;28;20191;-68
2021/12/29 11:37:51;;;;;;;3.83;0.87;;;8.00;99.90;;;;;;4989160;28;20501;-68
2021/12/29 11:40:24;;;;;;;7.77;1.50;;;8.00;99.90;;;;;;4992612;28;20974;-67
2021/12/29 11:42:50;;;;;;;1.30;0.70;;;8.00;99.90;;;;;;4988823;28;20446;-67
2021/12/29 11:45:17;;;;;;;2.90;1.53;;;8.10;99.90;;;;;;4981062;28;20423;-67
2021/12/29 11:47:44;;;;;;;3.37;1.43;;;8.10;99.90;;;;;;4994190;28;20549;-67
2021/12/29 11:50:12;;;;;;;9.30;1.33;;;8.20;99.90;;;;;;4978651;28;20443;-67
2021/12/29 11:53:08;;;;;;;9.30;1.50;;;8.20;99.90;;;;;;4986592;28;20451;-67
2021/12/29 11:55:40;;;;;;;3.27;1.20;;;8.20;99.90;;;;;;4986732;28;20315;-67
2021/12/29 11:58:18;;;;;;;5.00;1.70;;;8.20;99.90;;;;;;4990324;28;20463;-67
2021/12/29 12:00:58;;;;;;;3.00;0.90;;;8.20;99.90;;;;;;4981151;28;20550;-68
2021/12/29 12:03:24;;;;;;;1.80;0.93;;;8.20;99.90;;;;;;4981733;28;20419;-68
2021/12/29 12:05:50;;;;;;;2.20;1.00;;;8.20;99.90;;;;;;4978774;28;20472;-68
2021/12/29 12:08:22;;;;;;;4.07;1.37;;;8.20;99.90;;;;;;4985245;28;20537;-68
2021/12/29 12:10:47;;;;;;;9.40;2.17;;;8.20;99.90;;;;;;4980512;28;20230;-69
2021/12/29 12:13:23;;;;;;;5.77;1.50;;;8.10;99.90;;;;;;4975672;28;20825;-68
2021/12/29 12:15:49;;;;;;;2.00;1.00;;;8.10;99.90;;;;;;4979818;28;20783;-68
2021/12/29 12:18:15;;;;;;;2.30;1.33;;;8.10;99.90;;;;;;4978977;28;20920;-68
2021/12/29 12:20:49;;;;;;;3.27;1.20;;;8.10;99.90;;;;;;4977593;28;20453;-68
2021/12/29 12:23:23;;;;;;;7.00;1.50;;;8.10;99.90;;;;;;4984624;28;20183;-68
2021/12/29 12:25:49;;;;;;;2.73;1.20;;;8.10;99.90;;;;;;4986951;28;20947;-69
2021/12/29 12:28:16;;;;;;;6.10;1.23;;;8.20;99.90;;;;;;4992547;28;20435;-68
2021/12/29 12:30:45;;;;;;;4.97;1.40;;;8.30;99.90;;;;;;4981902;28;20223;-68
2021/12/29 12:33:17;;;;;;;5.00;2.23;;;8.30;99.90;;;;;;4979539;28;20437;-69
2021/12/29 12:35:46;;;;;;;3.17;1.37;;;8.30;99.90;;;;;;4985840;28;20913;-68
2021/12/29 12:38:32;;;;;;;3.63;1.20;;;8.40;99.90;;;;;;4985345;28;20414;-68
2021/12/29 12:41:18;;;;;;;1.60;0.90;;;8.40;99.90;;;;;;4982181;28;20497;-68
2021/12/29 12:43:51;;;;;;;10.10;1.93;;;8.40;99.90;;;;;;4979778;28;20418;-68
2021/12/29 12:46:42;;;;;;;2.60;1.10;;;8.30;99.90;;;;;;4972100;28;20474;-68
2021/12/29 12:49:23;;;;;;;2.83;1.33;;;8.40;99.90;;;;;;4975638;28;21083;-68
2021/12/29 12:51:57;;;;;;;15.03;1.10;;;8.30;99.90;;;;;;4994103;28;20465;-68
2021/12/29 12:54:27;;;;;;;3.90;1.27;;;8.40;99.90;;;;;;4982649;28;20842;-68
2021/12/29 12:56:54;;;;;;;9.20;1.90;;;8.40;99.90;;;;;;4981268;28;20950;-68
2021/12/29 12:59:19;;;;;;;3.23;0.90;;;8.40;99.90;;;;;;4982266;28;20552;-68
2021/12/29 13:01:48;;;;;;;1.50;0.70;;;8.40;99.90;;;;;;4983744;28;20710;-68
2021/12/29 13:04:16;;;;;;;2.60;1.03;;;8.40;99.90;;;;;;4984708;28;20219;-68
2021/12/29 13:06:49;;;;;;;3.77;1.23;;;8.40;99.90;;;;;;4981702;28;20923;-68